x

Port Aransas, Tx (ptat2) Weather Station

12:00am - Fri 1st Aug 2014 All times are CDT. -5 hours from GMT.

  • Wind
    15mph, 17mph gusts
  • Sea Temp 83°f
  • Air Temp 81°f
  • Sea Pressure 1013.9mb
  • Port Aransas, Tx
  • Port Aransas, Tx

More Historic Weather Station data

Upgrade to MSW Pro to gain access to the past 30 days of data for over 8000 Wavebouys and Weather Stations around the globe.

Join Pro

Comparision Forecast

View Surf forecast
   
Fri 08/01 12:00am 15 17 mph 1013.9mb 83f 81f
Thu 07/31 11:00pm 13
mph
1014.5mb 83f 81f
10:00pm 15 16 mph 1013.5mb 84f 81f
9:00pm 15 17 mph 1013.1mb 84f 81f
8:00pm 14 15 mph 1013.6mb 84f 81f
7:00pm 15 16 mph 1013.5mb 84f 82f
6:00pm 13 14 mph 1013.8mb 84f 82f
5:00pm 11 13 mph 1014mb 84f 82f
4:00pm 13 15 mph 1014.2mb 83f 82f
3:00pm 14 15 mph 1014.5mb 83f 82f
2:00pm 10 11 mph 1015.3mb 82f 81f
1:00pm 8 9 mph 1015.6mb 82f 81f
12:00pm 9 10 mph 1015.7mb 81f 81f
11:00am 9 10 mph 1015.2mb 81f 81f
10:00am 7 8 mph 1015.2mb 80f 80f
9:00am 8 9 mph 1014.7mb 80f 80f
8:00am 11 13 mph 1014.1mb 80f 80f
7:00am 11 13 mph 1013.9mb 81f 80f
6:00am 9 10 mph 1014.1mb 81f 80f
5:00am 13 14 mph 1014.2mb 81f 80f
4:00am 14 16 mph 1014.1mb 81f 80f
3:00am 13 14 mph 1014.4mb 81f 80f
2:00am 11 13 mph 1014.9mb 82f 81f
1:00am 13 14 mph 1015mb 82f 81f
12:00am 16 18 mph 1015mb 84f 81f
Wed 07/30 11:00pm 16 17 mph 1014.8mb 83f 81f
10:00pm 16 18 mph 1014.8mb 84f 82f
9:00pm 14 16 mph 1014.4mb 84f 81f
8:00pm 15 17 mph 1014.3mb 84f 82f
7:00pm 15 16 mph 1014.2mb 83f 82f
6:00pm 15 16 mph 1014.5mb 83f 82f
5:00pm 14 15 mph 1014.8mb 83f 82f
4:00pm 13 15 mph 1015.3mb 83f 82f
3:00pm 10 11 mph 1016.1mb 83f 82f
2:00pm 8
mph
1016.7mb 80f 81f
1:00pm 6 7 mph 1017.2mb 78f 81f
12:00pm 6 7 mph 1017.8mb 79f 81f
11:00am 3 5 mph 1018.3mb 79f 80f
10:00am 8
mph
1017.7mb 80f 80f
9:00am 8 9 mph 1017.5mb 79f 80f
8:00am 7 8 mph 1017.5mb 79f 80f
7:00am 6 7 mph 1017.4mb 80f 79f
6:00am 7 8 mph 1017.2mb 79f 79f
5:00am 8 9 mph 1017.1mb 79f 79f
4:00am 9 10 mph 1017.2mb 80f 79f
3:00am 7 8 mph 1017.2mb 82f 80f
2:00am 9 10 mph 1017.2mb 83f 80f
1:00am 9 10 mph 1017.3mb 84f 81f
12:00am 11 13 mph 1017.6mb 85f 81f
Tue 07/29 11:00pm 10 11 mph 1017.5mb 85f 81f
10:00pm 13 15 mph 1016.8mb 85f 81f
9:00pm 11
mph
1016.4mb 85f 81f
8:00pm 10 11 mph 1016.9mb 85f 82f
7:00pm 13 14 mph 1017.3mb 85f 82f
6:00pm 13 14 mph 1017.1mb 85f 82f
5:00pm 10 11 mph 1017.8mb 84f 82f
4:00pm 10
mph
1017.9mb 84f 82f
3:00pm 9
mph
1018.4mb 84f 82f
2:00pm 8 9 mph 1019mb 83f 81f
1:00pm 7 8 mph 1019.2mb 82f 81f
12:00pm 7
mph
1019.5mb 81f 81f
11:00am 6 7 mph 1019.7mb 81f 80f
10:00am 8
mph
1019.6mb 82f 80f
9:00am 5 6 mph 1019.5mb 82f 81f
8:00am 6
mph
1019mb 82f 79f
7:00am 6 7 mph 1018.3mb 82f 78f
6:00am 6 7 mph 1017.9mb 82f 79f
5:00am 9 10 mph 1017.6mb 82f 79f
4:00am 8 9 mph 1017.9mb 83f 79f
3:00am 7 8 mph 1017.7mb 83f 80f
2:00am 7 8 mph 1017.8mb 84f 80f
1:00am 9 10 mph 1018mb 83f 80f
12:00am 14 15 mph 1017.8mb 84f 81f
Mon 07/28 11:00pm 14 16 mph 1018.2mb 85f 81f
10:00pm 11 14 mph 1018.4mb 85f 82f
9:00pm 13 14 mph 1018.5mb 86f 82f
8:00pm 10 11 mph 1018mb 86f 82f
7:00pm 11 13 mph 1017.9mb 86f 83f
6:00pm 10 11 mph 1018.1mb 86f 83f
5:00pm 9 10 mph 1018.5mb 86f 83f
4:00pm 7 8 mph 1018.9mb 85f 83f
3:00pm 9 10 mph 1019.1mb 85f 83f
2:00pm 8 9 mph 1019.7mb 84f 83f
1:00pm 7 8 mph 1020.3mb 83f 82f
12:00pm 5
mph
1020.9mb 82f 82f
11:00am 2 3 mph 1020.7mb 82f 83f
10:00am 5 6 mph 1020.1mb 82f 82f
9:00am 5
mph
1019.7mb 81f 82f
8:00am 6 7 mph 1018.9mb 81f 81f
7:00am 5
mph
1018.9mb 82f 80f